createdAt,value
2023-05-22T00:02:06.871Z,57.52
2023-05-22T00:04:37.824Z,57.77
2023-05-22T00:07:27.676Z,57.99
2023-05-22T00:09:56.437Z,58.27
2023-05-22T00:12:27.057Z,58.11
2023-05-22T00:14:56.051Z,58.32
2023-05-22T00:17:30.951Z,58.25
2023-05-22T00:20:08.871Z,58.49
2023-05-22T00:22:41.024Z,58.84
2023-05-22T00:25:10.435Z,58.76
2023-05-22T00:27:41.786Z,58.91
2023-05-22T00:30:13.658Z,59.11
2023-05-22T00:32:41.972Z,59.39
2023-05-22T00:35:30.551Z,59.21
2023-05-22T00:37:58.780Z,59.47
2023-05-22T00:40:27.105Z,59.65
2023-05-22T00:43:08.827Z,59.64
2023-05-22T00:45:40.945Z,59.63
2023-05-22T00:48:09.987Z,59.72
2023-05-22T00:50:38.841Z,59.95
2023-05-22T00:53:07.597Z,60.20
2023-05-22T00:55:36.229Z,60.15
2023-05-22T00:58:09.640Z,60.33
2023-05-22T01:00:42.378Z,60.46
2023-05-22T01:03:11.499Z,60.58
2023-05-22T01:05:40.828Z,60.53
2023-05-22T01:08:09.747Z,60.70
2023-05-22T01:10:43.167Z,60.84
2023-05-22T01:13:35.113Z,61.03
2023-05-22T01:16:19.137Z,61.07
2023-05-22T01:19:01.627Z,61.19
2023-05-22T01:21:54.598Z,61.34
2023-05-22T01:24:57.308Z,61.33
2023-05-22T01:28:03.850Z,61.53
2023-05-22T01:30:48.911Z,61.70
2023-05-22T01:33:19.448Z,61.70
2023-05-22T01:35:54.149Z,61.90
2023-05-22T01:38:43.338Z,61.85
2023-05-22T01:41:13.060Z,62.02
2023-05-22T01:43:42.617Z,62.06
2023-05-22T01:46:11.506Z,62.15
2023-05-22T01:48:42.417Z,62.32
2023-05-22T01:51:38.848Z,62.18
2023-05-22T01:54:18.607Z,62.36
2023-05-22T01:57:31.234Z,62.52
2023-05-22T02:00:07.238Z,62.77
2023-05-22T02:03:01.302Z,62.76
2023-05-22T02:05:35.877Z,63.02
2023-05-22T02:08:28.687Z,63.22
2023-05-22T02:10:58.051Z,63.20
2023-05-22T02:13:48.635Z,63.19
2023-05-22T02:16:21.937Z,63.49
2023-05-22T02:18:51.549Z,63.44
2023-05-22T02:21:23.390Z,63.72
2023-05-22T02:23:51.781Z,63.83
2023-05-22T02:26:21.554Z,64.15
2023-05-22T02:28:49.985Z,64.19
2023-05-22T02:31:21.684Z,64.33
2023-05-22T02:33:50.088Z,64.49
2023-05-22T02:36:21.826Z,64.61
2023-05-22T02:38:50.646Z,64.73
2023-05-22T02:41:39.210Z,64.84
2023-05-22T02:44:07.650Z,64.95
2023-05-22T02:46:38.728Z,65.17
2023-05-22T02:49:27.417Z,65.56
2023-05-22T02:51:55.810Z,65.71
2023-05-22T02:54:24.492Z,66.01
2023-05-22T02:56:53.004Z,66.06
2023-05-22T02:59:24.924Z,66.32
2023-05-22T03:01:56.106Z,66.44
2023-05-22T03:04:44.910Z,66.47
2023-05-22T03:07:20.604Z,66.53
2023-05-22T03:10:07.082Z,66.43
2023-05-22T03:12:35.780Z,66.62
2023-05-22T03:15:04.791Z,66.43
2023-05-22T03:17:53.481Z,66.51
2023-05-22T03:20:36.176Z,66.56
2023-05-22T03:23:05.361Z,66.35
2023-05-22T03:25:42.884Z,66.43
2023-05-22T03:28:31.574Z,66.33
2023-05-22T03:31:06.010Z,66.24
2023-05-22T03:33:53.411Z,66.18
2023-05-22T03:36:38.081Z,66.12
2023-05-22T03:39:06.578Z,66.14
2023-05-22T03:41:38.940Z,66.03
2023-05-22T03:44:07.324Z,66.05
2023-05-22T03:46:35.570Z,66.07
2023-05-22T03:49:04.117Z,66.04
2023-05-22T03:51:32.658Z,65.84
2023-05-22T03:54:01.876Z,66.08
2023-05-22T03:56:39.449Z,66.02
2023-05-22T03:59:08.498Z,66.04
2023-05-22T04:01:42.352Z,66.16
2023-05-22T04:04:31.562Z,66.22
2023-05-22T04:07:00.002Z,66.27
2023-05-22T04:09:36.810Z,66.35
2023-05-22T04:12:05.782Z,66.20
2023-05-22T04:14:34.136Z,66.28
2023-05-22T04:17:02.814Z,66.20
2023-05-22T04:19:40.024Z,66.12
2023-05-22T04:22:08.346Z,66.15
2023-05-22T04:24:39.893Z,65.88
2023-05-22T04:27:08.199Z,65.92
2023-05-22T04:29:42.127Z,65.70
2023-05-22T04:32:10.972Z,65.78
2023-05-22T04:34:39.518Z,65.80
2023-05-22T04:37:12.072Z,65.71
2023-05-22T04:40:10.593Z,65.47
2023-05-22T04:42:39.575Z,65.49
2023-05-22T04:45:08.937Z,65.39
2023-05-22T04:47:41.776Z,65.44
2023-05-22T04:50:33.043Z,65.27
2023-05-22T04:53:04.667Z,65.14
2023-05-22T04:55:37.276Z,64.85
2023-05-22T04:58:12.065Z,64.74
2023-05-22T05:00:40.837Z,64.36
2023-05-22T05:03:11.930Z,63.96
2023-05-22T05:05:40.290Z,63.32
2023-05-22T05:08:09.000Z,63.25
2023-05-22T05:10:38.097Z,63.19
2023-05-22T05:13:37.164Z,62.89
2023-05-22T05:16:26.575Z,62.66
2023-05-22T05:19:09.490Z,63.14
2023-05-22T05:22:08.452Z,63.04
2023-05-22T05:24:40.354Z,62.89
2023-05-22T05:27:08.638Z,62.73
2023-05-22T05:29:37.213Z,62.86
2023-05-22T05:32:06.071Z,62.40
2023-05-22T05:34:41.638Z,62.41
2023-05-22T05:37:09.959Z,61.88
2023-05-22T05:39:41.863Z,60.52
2023-05-22T05:42:10.508Z,59.95
2023-05-22T05:44:38.893Z,58.48
2023-05-22T05:47:28.188Z,57.49
2023-05-22T05:49:56.685Z,56.53
2023-05-22T05:52:27.326Z,56.03
2023-05-22T05:55:07.784Z,55.81
2023-05-22T05:57:36.870Z,55.29
2023-05-22T06:00:14.698Z,54.51
2023-05-22T06:02:43.820Z,54.41
2023-05-22T06:05:21.715Z,53.54
2023-05-22T06:07:59.838Z,52.94
2023-05-22T06:10:28.347Z,52.84
2023-05-22T06:12:57.133Z,52.15
2023-05-22T06:15:25.863Z,51.37
2023-05-22T06:17:57.956Z,50.85
2023-05-22T06:20:26.286Z,50.38
2023-05-22T06:22:54.765Z,50.17
2023-05-22T06:25:26.299Z,49.81
2023-05-22T06:27:54.885Z,49.95
2023-05-22T06:30:38.841Z,49.12
2023-05-22T06:33:09.256Z,48.35
2023-05-22T06:35:38.270Z,48.68
2023-05-22T06:38:06.973Z,49.26
2023-05-22T06:40:35.337Z,49.18
2023-05-22T06:43:03.637Z,49.01
2023-05-22T06:45:31.955Z,48.88
2023-05-22T06:48:00.462Z,48.77
2023-05-22T06:50:29.243Z,48.89
2023-05-22T06:52:58.775Z,48.58
2023-05-22T06:55:27.995Z,48.33
2023-05-22T06:57:56.345Z,47.93
2023-05-22T07:00:25.487Z,47.08
2023-05-22T07:02:53.772Z,47.14
2023-05-22T07:05:22.506Z,46.80
2023-05-22T07:07:51.197Z,47.31
2023-05-22T07:10:20.155Z,47.52
2023-05-22T07:12:48.688Z,47.52
2023-05-22T07:15:17.155Z,48.01
2023-05-22T07:17:45.582Z,46.97
2023-05-22T07:20:15.977Z,47.45
2023-05-22T07:22:44.426Z,47.32
2023-05-22T07:25:13.072Z,47.19
2023-05-22T07:27:43.939Z,46.70
2023-05-22T07:30:13.280Z,46.10
2023-05-22T07:32:42.121Z,46.12
2023-05-22T07:35:14.482Z,46.54
2023-05-22T07:37:48.249Z,46.51
2023-05-22T07:40:26.557Z,46.15
2023-05-22T07:42:55.420Z,45.69
2023-05-22T07:45:23.859Z,45.16
2023-05-22T07:47:54.082Z,45.32
2023-05-22T07:50:26.813Z,45.40
2023-05-22T07:53:04.795Z,45.67
2023-05-22T07:55:33.338Z,45.12
2023-05-22T07:58:04.465Z,44.29
2023-05-22T08:00:42.200Z,44.03
2023-05-22T08:03:12.520Z,43.73
2023-05-22T08:05:44.412Z,43.71
2023-05-22T08:08:13.476Z,42.14
2023-05-22T08:11:01.932Z,41.26
2023-05-22T08:13:31.541Z,40.61
2023-05-22T08:16:01.312Z,39.99
2023-05-22T08:18:30.777Z,39.62
2023-05-22T08:21:02.635Z,39.13
2023-05-22T08:23:39.036Z,39.14
2023-05-22T08:26:09.082Z,38.91
2023-05-22T08:28:39.964Z,38.90
2023-05-22T08:31:08.283Z,39.08
2023-05-22T08:33:37.094Z,38.52
2023-05-22T08:36:06.315Z,37.68
2023-05-22T08:38:34.568Z,36.10
2023-05-22T08:41:13.389Z,36.28
2023-05-22T08:43:42.256Z,36.65
2023-05-22T08:46:11.454Z,37.53
2023-05-22T08:48:42.261Z,36.94
2023-05-22T08:51:15.416Z,35.76
2023-05-22T08:53:44.526Z,35.56
2023-05-22T08:56:13.167Z,34.87
2023-05-22T08:58:42.049Z,34.55
2023-05-22T09:01:11.215Z,34.12
2023-05-22T09:03:40.011Z,33.96
2023-05-22T09:06:11.388Z,33.74
2023-05-22T09:08:39.708Z,33.68
2023-05-22T09:11:08.004Z,33.68
2023-05-22T09:13:39.750Z,33.19
2023-05-22T09:16:13.078Z,33.00
2023-05-22T09:18:42.788Z,33.42
2023-05-22T09:21:25.978Z,32.43
2023-05-22T09:24:01.888Z,32.70
2023-05-22T09:26:33.776Z,32.56
2023-05-22T09:29:03.256Z,32.66
2023-05-22T09:31:32.272Z,32.30
2023-05-22T09:34:00.923Z,32.86
2023-05-22T09:36:33.565Z,33.05
2023-05-22T09:39:03.081Z,32.78
2023-05-22T09:41:36.778Z,32.60
2023-05-22T09:44:15.660Z,33.31
2023-05-22T09:46:47.791Z,33.59
2023-05-22T09:49:17.443Z,33.48
2023-05-22T09:51:52.543Z,33.81
2023-05-22T09:54:21.818Z,34.59
2023-05-22T09:56:51.406Z,34.24
2023-05-22T09:59:27.067Z,34.32
2023-05-22T10:01:55.912Z,34.69
2023-05-22T10:04:28.269Z,34.27
2023-05-22T10:06:57.990Z,33.74
2023-05-22T10:09:32.924Z,33.32
2023-05-22T10:12:06.199Z,32.16
2023-05-22T10:14:36.017Z,32.42
2023-05-22T10:17:06.798Z,32.17
2023-05-22T10:19:40.343Z,31.96
2023-05-22T10:22:15.144Z,31.10
2023-05-22T10:24:44.040Z,31.50
2023-05-22T10:27:12.997Z,30.96
2023-05-22T10:29:50.144Z,30.72
2023-05-22T10:32:47.038Z,31.10
2023-05-22T10:35:32.526Z,29.91
2023-05-22T10:38:13.449Z,29.49
2023-05-22T10:40:45.413Z,29.03
2023-05-22T10:43:14.256Z,28.97
2023-05-22T10:45:46.742Z,29.16
2023-05-22T10:48:16.468Z,29.59
2023-05-22T10:50:54.722Z,29.48
2023-05-22T10:53:23.367Z,29.90
2023-05-22T10:55:53.904Z,29.45
2023-05-22T10:58:32.170Z,29.89
2023-05-22T11:01:16.724Z,29.89
2023-05-22T11:04:01.993Z,29.18
2023-05-22T11:06:50.483Z,28.83
2023-05-22T11:09:20.776Z,29.18
2023-05-22T11:12:16.572Z,29.59
2023-05-22T11:14:56.762Z,29.51
2023-05-22T11:17:28.016Z,29.57
2023-05-22T11:20:02.176Z,29.37
2023-05-22T11:22:41.107Z,28.96
2023-05-22T11:25:17.028Z,28.34
2023-05-22T11:27:46.760Z,28.08
2023-05-22T11:30:16.625Z,27.81
2023-05-22T11:32:46.483Z,27.65
2023-05-22T11:35:19.689Z,27.94
2023-05-22T11:37:50.493Z,27.94
2023-05-22T11:40:21.542Z,28.38
2023-05-22T11:42:50.833Z,28.57
2023-05-22T11:45:19.611Z,28.56
2023-05-22T11:47:49.099Z,28.37
2023-05-22T11:50:29.414Z,28.68
2023-05-22T11:53:04.096Z,28.89
2023-05-22T11:55:33.801Z,28.80
2023-05-22T11:58:03.049Z,29.13
2023-05-22T12:00:32.628Z,28.79
2023-05-22T12:03:01.767Z,28.43
2023-05-22T12:05:33.061Z,27.83
2023-05-22T12:08:01.662Z,27.99
2023-05-22T12:10:31.758Z,28.11
2023-05-22T12:13:03.331Z,28.62
2023-05-22T12:15:32.349Z,29.20
2023-05-22T12:18:00.692Z,28.83
2023-05-22T12:20:31.115Z,28.96
2023-05-22T12:23:00.074Z,28.88
2023-05-22T12:25:37.362Z,29.08
2023-05-22T12:28:09.229Z,28.95
2023-05-22T12:30:42.287Z,28.98
2023-05-22T12:33:15.308Z,28.83
2023-05-22T12:35:44.431Z,28.65
2023-05-22T12:38:13.795Z,28.82
2023-05-22T12:40:45.187Z,28.80
2023-05-22T12:43:13.411Z,29.03
2023-05-22T12:45:42.575Z,29.33
2023-05-22T12:48:12.272Z,29.72
2023-05-22T12:50:41.630Z,28.78
2023-05-22T12:53:11.001Z,29.45
2023-05-22T12:55:39.707Z,29.26
2023-05-22T12:58:08.182Z,28.41
2023-05-22T13:00:36.613Z,29.09
2023-05-22T13:03:06.844Z,28.78
2023-05-22T13:05:35.264Z,27.81
2023-05-22T13:08:03.768Z,27.51
2023-05-22T13:10:32.419Z,27.78
2023-05-22T13:13:00.837Z,27.45
2023-05-22T13:15:29.851Z,28.09
2023-05-22T13:17:58.157Z,28.33
2023-05-22T13:20:26.490Z,28.33
2023-05-22T13:22:55.181Z,27.66
2023-05-22T13:25:23.824Z,27.42
2023-05-22T13:27:52.791Z,27.80
2023-05-22T13:30:21.324Z,28.00
2023-05-22T13:32:52.693Z,28.10
2023-05-22T13:35:21.202Z,27.69
2023-05-22T13:37:49.931Z,27.78
2023-05-22T13:40:18.506Z,28.24
2023-05-22T13:42:46.937Z,27.52
2023-05-22T13:45:18.909Z,28.06
2023-05-22T13:47:47.350Z,28.72
2023-05-22T13:50:15.742Z,27.98
2023-05-22T13:52:53.233Z,27.98
2023-05-22T13:55:21.727Z,28.68
2023-05-22T13:57:50.719Z,28.69
2023-05-22T14:00:20.363Z,28.21
2023-05-22T14:02:49.492Z,28.81
2023-05-22T14:05:18.143Z,27.62
2023-05-22T14:07:46.515Z,28.13
2023-05-22T14:10:14.771Z,28.16
2023-05-22T14:12:43.073Z,28.07
2023-05-22T14:15:11.761Z,28.18
2023-05-22T14:17:40.070Z,28.51
2023-05-22T14:20:08.943Z,28.12
2023-05-22T14:22:55.318Z,28.38
2023-05-22T14:25:28.032Z,28.47
2023-05-22T14:27:56.428Z,28.87
2023-05-22T14:30:25.137Z,29.07
2023-05-22T14:32:53.579Z,28.92
2023-05-22T14:35:22.014Z,28.58
2023-05-22T14:37:50.955Z,28.69
2023-05-22T14:40:19.399Z,29.23
2023-05-22T14:42:47.641Z,29.70
2023-05-22T14:45:16.243Z,30.24
2023-05-22T14:47:45.266Z,29.87
2023-05-22T14:50:19.844Z,29.81
2023-05-22T14:52:49.986Z,30.37
2023-05-22T14:55:18.425Z,30.95
2023-05-22T14:57:46.592Z,31.30
2023-05-22T15:00:18.816Z,31.51
2023-05-22T15:02:47.325Z,31.70
2023-05-22T15:05:16.852Z,31.53
2023-05-22T15:07:49.010Z,31.87
2023-05-22T15:10:20.410Z,31.89
2023-05-22T15:12:48.668Z,31.92
2023-05-22T15:15:17.027Z,32.13
2023-05-22T15:17:45.737Z,31.94
2023-05-22T15:20:14.226Z,31.75
2023-05-22T15:22:42.664Z,31.77
2023-05-22T15:25:15.451Z,31.82
2023-05-22T15:27:45.301Z,32.01
2023-05-22T15:30:16.301Z,32.15
2023-05-22T15:32:45.725Z,32.14
2023-05-22T15:35:16.613Z,32.39
2023-05-22T15:37:45.135Z,32.46
2023-05-22T15:40:18.140Z,32.35
2023-05-22T15:42:46.684Z,32.38
2023-05-22T15:45:14.883Z,32.14
2023-05-22T15:47:43.483Z,32.26
2023-05-22T15:50:12.025Z,32.30
2023-05-22T15:52:40.796Z,32.27
2023-05-22T15:55:09.842Z,32.03
2023-05-22T15:57:38.628Z,32.33
2023-05-22T16:00:08.758Z,32.06
2023-05-22T16:02:37.184Z,32.09
2023-05-22T16:05:05.963Z,32.24
2023-05-22T16:07:34.678Z,32.09
2023-05-22T16:10:04.316Z,32.01
2023-05-22T16:12:33.381Z,32.36
2023-05-22T16:15:02.876Z,32.41
2023-05-22T16:17:32.392Z,32.53
2023-05-22T16:20:01.411Z,32.51
2023-05-22T16:22:44.134Z,32.23
2023-05-22T16:25:17.043Z,32.21
2023-05-22T16:27:45.706Z,32.32
2023-05-22T16:30:17.168Z,32.12
2023-05-22T16:32:46.821Z,32.22
2023-05-22T16:35:16.459Z,32.23
2023-05-22T16:37:45.435Z,32.27
2023-05-22T16:40:14.306Z,32.28
2023-05-22T16:42:43.370Z,32.48
2023-05-22T16:45:12.410Z,32.54
2023-05-22T16:47:40.760Z,32.53
2023-05-22T16:50:09.409Z,32.38
2023-05-22T16:52:37.648Z,32.29
2023-05-22T16:55:06.989Z,32.22
2023-05-22T16:57:35.265Z,32.30
2023-05-22T17:00:04.523Z,32.84
2023-05-22T17:02:33.737Z,32.64
2023-05-22T17:05:02.440Z,32.53
2023-05-22T17:07:34.637Z,32.73
2023-05-22T17:10:03.432Z,33.02
2023-05-22T17:12:31.977Z,33.21
2023-05-22T17:15:02.309Z,33.48
2023-05-22T17:17:31.245Z,33.40
2023-05-22T17:20:01.884Z,33.32
2023-05-22T17:22:30.412Z,33.48
2023-05-22T17:24:59.295Z,33.42
2023-05-22T17:27:36.034Z,33.61
2023-05-22T17:30:07.667Z,33.78
2023-05-22T17:32:36.174Z,34.09
2023-05-22T17:35:06.946Z,34.39
2023-05-22T17:37:35.996Z,35.06
2023-05-22T17:40:05.474Z,35.16
2023-05-22T17:42:34.296Z,35.36
2023-05-22T17:45:02.711Z,35.68
2023-05-22T17:47:31.685Z,35.85
2023-05-22T17:50:00.220Z,35.84
2023-05-22T17:52:28.934Z,36.05
2023-05-22T17:54:57.598Z,36.20
2023-05-22T17:57:37.622Z,36.31
2023-05-22T18:00:10.139Z,36.36
2023-05-22T18:02:39.969Z,36.71
2023-05-22T18:05:09.640Z,36.80
2023-05-22T18:07:38.033Z,37.01
2023-05-22T18:10:07.256Z,37.19
2023-05-22T18:12:38.032Z,37.40
2023-05-22T18:15:09.777Z,37.62
2023-05-22T18:17:38.722Z,37.85
2023-05-22T18:20:09.528Z,38.05
2023-05-22T18:22:39.640Z,38.29
2023-05-22T18:25:09.811Z,38.54
2023-05-22T18:27:38.183Z,39.20
2023-05-22T18:30:09.373Z,39.04
2023-05-22T18:32:40.580Z,39.18
2023-05-22T18:35:09.703Z,39.33
2023-05-22T18:37:49.321Z,39.41
2023-05-22T18:40:25.964Z,39.95
2023-05-22T18:42:58.773Z,40.09
2023-05-22T18:45:35.312Z,40.19
2023-05-22T18:48:05.211Z,40.39
2023-05-22T18:50:34.566Z,40.44
2023-05-22T18:53:03.226Z,40.56
2023-05-22T18:55:41.929Z,41.02
2023-05-22T18:58:14.327Z,40.82
2023-05-22T19:00:52.391Z,41.05
2023-05-22T19:03:26.761Z,41.14
2023-05-22T19:05:58.508Z,41.29
2023-05-22T19:08:33.845Z,41.47
2023-05-22T19:11:05.390Z,41.59
2023-05-22T19:13:33.901Z,41.67
2023-05-22T19:16:06.725Z,42.02
2023-05-22T19:18:36.773Z,41.95
2023-05-22T19:21:26.615Z,42.22
2023-05-22T19:23:55.686Z,42.42
2023-05-22T19:26:24.437Z,42.71
2023-05-22T19:28:59.480Z,42.77
2023-05-22T19:31:40.119Z,42.84
2023-05-22T19:34:16.836Z,43.11
2023-05-22T19:37:07.018Z,43.02
2023-05-22T19:39:38.095Z,43.41
2023-05-22T19:42:08.584Z,43.21
2023-05-22T19:44:40.165Z,43.73
2023-05-22T19:47:11.575Z,43.39
2023-05-22T19:49:42.573Z,43.59
2023-05-22T19:52:11.647Z,43.81
2023-05-22T19:54:43.249Z,43.67
2023-05-22T19:57:12.743Z,43.88
2023-05-22T19:59:46.869Z,44.06
2023-05-22T20:02:16.160Z,43.99
2023-05-22T20:04:44.732Z,43.98
2023-05-22T20:07:18.572Z,44.55
2023-05-22T20:09:52.676Z,44.09
2023-05-22T20:12:21.100Z,44.46
2023-05-22T20:14:52.781Z,44.50
2023-05-22T20:17:22.889Z,44.34
2023-05-22T20:19:51.500Z,44.27
2023-05-22T20:22:41.082Z,44.36
2023-05-22T20:25:10.479Z,44.12
2023-05-22T20:27:40.504Z,44.24
2023-05-22T20:30:12.785Z,44.33
2023-05-22T20:32:45.986Z,44.11
2023-05-22T20:35:18.817Z,44.42
2023-05-22T20:37:53.481Z,44.30
2023-05-22T20:40:27.203Z,44.39
2023-05-22T20:42:57.240Z,44.62
2023-05-22T20:45:26.797Z,44.86
2023-05-22T20:47:57.710Z,44.88
2023-05-22T20:50:31.235Z,45.17
2023-05-22T20:53:00.914Z,45.28
2023-05-22T20:55:36.351Z,45.17
2023-05-22T20:58:04.709Z,45.25
2023-05-22T21:00:42.187Z,45.08
2023-05-22T21:03:11.851Z,45.43
2023-05-22T21:05:41.059Z,45.32
2023-05-22T21:08:12.704Z,45.41
2023-05-22T21:10:41.567Z,45.49
2023-05-22T21:13:22.605Z,45.69
2023-05-22T21:15:51.572Z,45.48
2023-05-22T21:18:43.827Z,45.73
2023-05-22T21:21:17.882Z,45.93
2023-05-22T21:23:48.318Z,46.10
2023-05-22T21:26:26.679Z,46.14
2023-05-22T21:28:55.823Z,46.06
2023-05-22T21:31:24.137Z,46.20
2023-05-22T21:33:53.061Z,46.32
2023-05-22T21:36:21.821Z,46.75
2023-05-22T21:38:50.289Z,46.56
2023-05-22T21:41:18.898Z,46.83
2023-05-22T21:43:47.580Z,47.22
2023-05-22T21:46:23.613Z,47.25
2023-05-22T21:49:05.435Z,47.24
2023-05-22T21:51:34.205Z,47.16
2023-05-22T21:54:05.321Z,47.34
2023-05-22T21:56:33.984Z,47.48
2023-05-22T21:59:02.233Z,47.34
2023-05-22T22:01:30.740Z,47.59
2023-05-22T22:04:07.273Z,47.97
2023-05-22T22:06:37.253Z,48.13
2023-05-22T22:09:06.023Z,48.23
2023-05-22T22:11:36.275Z,47.90
2023-05-22T22:14:05.731Z,48.03
2023-05-22T22:16:36.827Z,48.21
2023-05-22T22:19:05.198Z,48.53
2023-05-22T22:21:45.661Z,48.53
2023-05-22T22:24:23.449Z,48.47
2023-05-22T22:26:56.888Z,48.53
2023-05-22T22:29:33.972Z,48.58
2023-05-22T22:32:02.762Z,48.69
2023-05-22T22:34:31.728Z,48.96
2023-05-22T22:37:03.438Z,49.41
2023-05-22T22:39:31.876Z,49.08
2023-05-22T22:42:04.540Z,49.13
2023-05-22T22:44:33.008Z,49.06
2023-05-22T22:47:09.854Z,49.21
2023-05-22T22:49:41.408Z,49.20
2023-05-22T22:52:09.689Z,49.22
2023-05-22T22:54:38.600Z,49.26
2023-05-22T22:57:29.995Z,49.28
2023-05-22T22:59:58.141Z,49.34
2023-05-22T23:02:26.984Z,49.65
2023-05-22T23:04:55.301Z,49.63
2023-05-22T23:07:33.331Z,49.67
2023-05-22T23:10:07.323Z,49.68
2023-05-22T23:12:39.005Z,49.87
2023-05-22T23:15:48.377Z,50.02
2023-05-22T23:18:36.845Z,50.15
2023-05-22T23:21:08.711Z,50.14
2023-05-22T23:24:00.890Z,50.51
2023-05-22T23:26:35.346Z,50.41
2023-05-22T23:29:13.363Z,50.79
2023-05-22T23:32:07.018Z,50.95
2023-05-22T23:34:39.282Z,51.26
2023-05-22T23:37:56.446Z,51.35
2023-05-22T23:40:25.963Z,51.39
2023-05-22T23:43:14.928Z,51.47
2023-05-22T23:45:45.675Z,51.58
2023-05-22T23:48:14.605Z,51.61
2023-05-22T23:50:45.922Z,51.90
2023-05-22T23:53:17.965Z,52.12
2023-05-22T23:56:07.447Z,52.19
2023-05-22T23:58:35.861Z,52.31
